Terminal Aerodrome Forecast
Issued by NWS Grand Forks, ND

Home | Current Version | Previous Version | Text Only | Print | Product List | Glossary Off
Versions: 1 2 3 4 5 6 7 8 9 10 11 12 13

114
FTUS43 KFGF 021724 AAA
TAFGFK
TAF AMD
KGFK 021724Z 0217/0318 17006KT P6SM FEW250
     FM022300 22006KT P6SM FEW250
     FM030700 25006KT P6SM SCT250
     FM031400 32013KT P6SM SCT250=

USA.gov is the U.S. government's official web portal to all federal, state and local government web resources and services.